sensor_id;sensor_type;location;lat;lon;timestamp;temperature;humidity
42099;DHT22;27758;55.900;8.516;2023-08-06T00:00:20;14.70;99.90
42099;DHT22;27758;55.900;8.516;2023-08-06T00:02:47;14.70;99.90
42099;DHT22;27758;55.900;8.516;2023-08-06T00:05:12;14.70;99.90
42099;DHT22;27758;55.900;8.516;2023-08-06T00:07:38;14.70;99.90
42099;DHT22;27758;55.900;8.516;2023-08-06T00:10:04;14.70;99.90
42099;DHT22;27758;55.900;8.516;2023-08-06T00:12:30;14.60;99.90
42099;DHT22;27758;55.900;8.516;2023-08-06T00:14:56;14.60;99.90
42099;DHT22;27758;55.900;8.516;2023-08-06T00:17:22;14.60;99.90
42099;DHT22;27758;55.900;8.516;2023-08-06T00:19:47;14.70;99.90
42099;DHT22;27758;55.900;8.516;2023-08-06T00:22:13;14.60;99.90
42099;DHT22;27758;55.900;8.516;2023-08-06T00:24:39;14.70;99.90
42099;DHT22;27758;55.900;8.516;2023-08-06T00:27:04;14.70;99.90
42099;DHT22;27758;55.900;8.516;2023-08-06T00:29:30;14.70;99.90
42099;DHT22;27758;55.900;8.516;2023-08-06T00:31:56;14.60;99.90
42099;DHT22;27758;55.900;8.516;2023-08-06T00:34:21;14.60;99.90
42099;DHT22;27758;55.900;8.516;2023-08-06T00:36:47;14.50;99.90
42099;DHT22;27758;55.900;8.516;2023-08-06T00:39:13;14.50;99.90
42099;DHT22;27758;55.900;8.516;2023-08-06T00:41:39;14.50;99.90
42099;DHT22;27758;55.900;8.516;2023-08-06T00:44:05;14.50;99.90
42099;DHT22;27758;55.900;8.516;2023-08-06T00:46:32;14.50;99.90
42099;DHT22;27758;55.900;8.516;2023-08-06T00:48:58;14.50;99.90
42099;DHT22;27758;55.900;8.516;2023-08-06T00:51:24;14.40;99.90
42099;DHT22;27758;55.900;8.516;2023-08-06T00:53:50;14.40;99.90
42099;DHT22;27758;55.900;8.516;2023-08-06T00:56:17;14.50;99.90
42099;DHT22;27758;55.900;8.516;2023-08-06T00:58:45;14.40;99.90
42099;DHT22;27758;55.900;8.516;2023-08-06T01:01:11;14.40;99.90
42099;DHT22;27758;55.900;8.516;2023-08-06T01:03:36;14.40;99.90
42099;DHT22;27758;55.900;8.516;2023-08-06T01:06:02;14.40;99.90
42099;DHT22;27758;55.900;8.516;2023-08-06T01:13:49;14.40;99.90
42099;DHT22;27758;55.900;8.516;2023-08-06T01:16:18;14.40;99.90
42099;DHT22;27758;55.900;8.516;2023-08-06T01:18:44;14.30;99.90
42099;DHT22;27758;55.900;8.516;2023-08-06T01:21:13;14.30;99.90
42099;DHT22;27758;55.900;8.516;2023-08-06T01:23:39;14.20;99.90
42099;DHT22;27758;55.900;8.516;2023-08-06T01:26:22;14.10;99.90
42099;DHT22;27758;55.900;8.516;2023-08-06T01:28:59;14.10;99.90
42099;DHT22;27758;55.900;8.516;2023-08-06T01:31:31;14.10;99.90
42099;DHT22;27758;55.900;8.516;2023-08-06T01:33:59;14.10;99.90
42099;DHT22;27758;55.900;8.516;2023-08-06T01:36:26;14.10;99.90
42099;DHT22;27758;55.900;8.516;2023-08-06T01:38:53;14.10;99.90
42099;DHT22;27758;55.900;8.516;2023-08-06T01:41:19;14.10;99.90
42099;DHT22;27758;55.900;8.516;2023-08-06T01:43:45;14.10;99.90
42099;DHT22;27758;55.900;8.516;2023-08-06T01:46:11;14.10;99.90
42099;DHT22;27758;55.900;8.516;2023-08-06T01:48:36;14.00;99.90
42099;DHT22;27758;55.900;8.516;2023-08-06T01:51:05;14.00;99.90
42099;DHT22;27758;55.900;8.516;2023-08-06T01:53:31;14.00;99.90
42099;DHT22;27758;55.900;8.516;2023-08-06T01:55:57;14.10;99.90
42099;DHT22;27758;55.900;8.516;2023-08-06T01:58:23;14.10;99.90
42099;DHT22;27758;55.900;8.516;2023-08-06T02:00:49;14.10;99.90
42099;DHT22;27758;55.900;8.516;2023-08-06T02:03:15;14.10;99.90
42099;DHT22;27758;55.900;8.516;2023-08-06T02:05:41;14.10;99.90
42099;DHT22;27758;55.900;8.516;2023-08-06T02:08:06;14.10;99.90
42099;DHT22;27758;55.900;8.516;2023-08-06T02:10:32;14.10;99.90
42099;DHT22;27758;55.900;8.516;2023-08-06T02:12:58;14.10;99.90
42099;DHT22;27758;55.900;8.516;2023-08-06T02:15:24;14.10;99.90
42099;DHT22;27758;55.900;8.516;2023-08-06T02:17:49;14.10;99.90
42099;DHT22;27758;55.900;8.516;2023-08-06T02:20:15;14.10;99.90
42099;DHT22;27758;55.900;8.516;2023-08-06T02:22:41;14.10;99.90
42099;DHT22;27758;55.900;8.516;2023-08-06T02:25:07;14.00;99.90
42099;DHT22;27758;55.900;8.516;2023-08-06T02:27:32;14.10;99.90
42099;DHT22;27758;55.900;8.516;2023-08-06T02:29:58;14.10;99.90
42099;DHT22;27758;55.900;8.516;2023-08-06T02:32:24;14.10;99.90
42099;DHT22;27758;55.900;8.516;2023-08-06T02:34:50;14.10;99.90
42099;DHT22;27758;55.900;8.516;2023-08-06T02:37:15;14.10;99.90
42099;DHT22;27758;55.900;8.516;2023-08-06T02:39:41;14.10;99.90
42099;DHT22;27758;55.900;8.516;2023-08-06T02:42:07;14.00;99.90
42099;DHT22;27758;55.900;8.516;2023-08-06T02:44:33;14.00;99.90
42099;DHT22;27758;55.900;8.516;2023-08-06T02:47:00;14.00;99.90
42099;DHT22;27758;55.900;8.516;2023-08-06T02:49:25;14.00;99.90
42099;DHT22;27758;55.900;8.516;2023-08-06T02:51:51;14.00;99.90
42099;DHT22;27758;55.900;8.516;2023-08-06T02:54:18;14.00;99.90
42099;DHT22;27758;55.900;8.516;2023-08-06T02:56:45;14.00;99.90
42099;DHT22;27758;55.900;8.516;2023-08-06T02:59:11;14.10;99.90
42099;DHT22;27758;55.900;8.516;2023-08-06T03:01:37;14.00;99.90
42099;DHT22;27758;55.900;8.516;2023-08-06T03:04:03;13.90;99.90
42099;DHT22;27758;55.900;8.516;2023-08-06T03:06:29;13.90;99.90
42099;DHT22;27758;55.900;8.516;2023-08-06T03:08:54;14.00;99.90
42099;DHT22;27758;55.900;8.516;2023-08-06T03:11:20;14.00;99.90
42099;DHT22;27758;55.900;8.516;2023-08-06T03:13:47;14.00;99.90
42099;DHT22;27758;55.900;8.516;2023-08-06T03:16:13;14.00;99.90
42099;DHT22;27758;55.900;8.516;2023-08-06T03:18:39;14.00;99.90
42099;DHT22;27758;55.900;8.516;2023-08-06T03:21:05;14.00;99.90
42099;DHT22;27758;55.900;8.516;2023-08-06T03:23:31;14.00;99.90
42099;DHT22;27758;55.900;8.516;2023-08-06T03:26:00;13.90;99.90
42099;DHT22;27758;55.900;8.516;2023-08-06T03:28:26;14.00;99.90
42099;DHT22;27758;55.900;8.516;2023-08-06T03:31:02;14.00;99.90
42099;DHT22;27758;55.900;8.516;2023-08-06T03:33:27;14.00;99.90
42099;DHT22;27758;55.900;8.516;2023-08-06T03:35:54;14.00;99.90
42099;DHT22;27758;55.900;8.516;2023-08-06T03:38:20;14.00;99.90
42099;DHT22;27758;55.900;8.516;2023-08-06T03:40:49;14.00;99.90
42099;DHT22;27758;55.900;8.516;2023-08-06T03:43:15;13.90;99.90
42099;DHT22;27758;55.900;8.516;2023-08-06T03:45:41;13.90;99.90
42099;DHT22;27758;55.900;8.516;2023-08-06T03:48:07;14.00;99.90
42099;DHT22;27758;55.900;8.516;2023-08-06T03:50:33;14.00;99.90
42099;DHT22;27758;55.900;8.516;2023-08-06T03:53:01;14.00;99.90
42099;DHT22;27758;55.900;8.516;2023-08-06T03:55:27;14.00;99.90
42099;DHT22;27758;55.900;8.516;2023-08-06T03:57:53;14.00;99.90
42099;DHT22;27758;55.900;8.516;2023-08-06T04:00:18;14.10;99.90
42099;DHT22;27758;55.900;8.516;2023-08-06T04:02:44;14.10;99.90
42099;DHT22;27758;55.900;8.516;2023-08-06T04:05:10;14.10;99.90
42099;DHT22;27758;55.900;8.516;2023-08-06T04:07:36;14.10;99.90
42099;DHT22;27758;55.900;8.516;2023-08-06T04:10:03;14.10;99.90
42099;DHT22;27758;55.900;8.516;2023-08-06T04:12:29;14.10;99.90
42099;DHT22;27758;55.900;8.516;2023-08-06T04:14:57;14.10;99.90
42099;DHT22;27758;55.900;8.516;2023-08-06T04:17:23;14.10;99.90
42099;DHT22;27758;55.900;8.516;2023-08-06T04:19:51;14.10;99.90
42099;DHT22;27758;55.900;8.516;2023-08-06T04:22:17;14.20;99.90
42099;DHT22;27758;55.900;8.516;2023-08-06T04:24:42;14.10;99.90
42099;DHT22;27758;55.900;8.516;2023-08-06T04:27:10;14.20;99.90
42099;DHT22;27758;55.900;8.516;2023-08-06T04:29:36;14.10;99.90
42099;DHT22;27758;55.900;8.516;2023-08-06T04:32:03;14.20;99.90
42099;DHT22;27758;55.900;8.516;2023-08-06T04:34:29;14.10;99.90
42099;DHT22;27758;55.900;8.516;2023-08-06T04:36:55;14.20;99.90
42099;DHT22;27758;55.900;8.516;2023-08-06T04:39:20;14.20;99.90
42099;DHT22;27758;55.900;8.516;2023-08-06T04:41:46;14.20;99.90
42099;DHT22;27758;55.900;8.516;2023-08-06T04:44:12;14.20;99.90
42099;DHT22;27758;55.900;8.516;2023-08-06T04:46:37;14.30;99.90
42099;DHT22;27758;55.900;8.516;2023-08-06T04:49:03;14.30;99.90
42099;DHT22;27758;55.900;8.516;2023-08-06T04:51:29;14.30;99.90
42099;DHT22;27758;55.900;8.516;2023-08-06T04:53:54;14.40;99.90
42099;DHT22;27758;55.900;8.516;2023-08-06T04:56:20;14.30;99.90
42099;DHT22;27758;55.900;8.516;2023-08-06T04:58:45;14.40;99.90
42099;DHT22;27758;55.900;8.516;2023-08-06T05:01:11;14.50;99.90
42099;DHT22;27758;55.900;8.516;2023-08-06T05:03:37;14.50;99.90
42099;DHT22;27758;55.900;8.516;2023-08-06T05:06:03;14.50;99.90
42099;DHT22;27758;55.900;8.516;2023-08-06T05:08:28;14.50;99.90
42099;DHT22;27758;55.900;8.516;2023-08-06T05:10:54;14.50;99.90
42099;DHT22;27758;55.900;8.516;2023-08-06T05:13:20;14.60;99.90
42099;DHT22;27758;55.900;8.516;2023-08-06T05:15:45;14.60;99.90
42099;DHT22;27758;55.900;8.516;2023-08-06T05:18:12;14.70;99.90
42099;DHT22;27758;55.900;8.516;2023-08-06T05:20:39;14.70;99.90
42099;DHT22;27758;55.900;8.516;2023-08-06T05:23:05;14.70;99.90
42099;DHT22;27758;55.900;8.516;2023-08-06T05:25:30;14.70;99.90
42099;DHT22;27758;55.900;8.516;2023-08-06T05:27:56;14.80;99.90
42099;DHT22;27758;55.900;8.516;2023-08-06T05:30:22;14.90;99.90
42099;DHT22;27758;55.900;8.516;2023-08-06T05:32:47;14.90;99.90
42099;DHT22;27758;55.900;8.516;2023-08-06T05:35:13;14.90;99.90
42099;DHT22;27758;55.900;8.516;2023-08-06T05:37:39;15.00;99.90
42099;DHT22;27758;55.900;8.516;2023-08-06T05:40:05;15.00;99.90
42099;DHT22;27758;55.900;8.516;2023-08-06T05:42:30;15.10;99.90
42099;DHT22;27758;55.900;8.516;2023-08-06T05:44:56;15.10;99.90
42099;DHT22;27758;55.900;8.516;2023-08-06T05:47:22;15.20;99.90
42099;DHT22;27758;55.900;8.516;2023-08-06T05:49:48;15.20;99.90
42099;DHT22;27758;55.900;8.516;2023-08-06T05:52:16;15.30;99.90
42099;DHT22;27758;55.900;8.516;2023-08-06T05:54:43;15.30;99.90
42099;DHT22;27758;55.900;8.516;2023-08-06T05:57:08;15.30;99.90
42099;DHT22;27758;55.900;8.516;2023-08-06T05:59:34;15.30;99.90
42099;DHT22;27758;55.900;8.516;2023-08-06T06:02:00;15.40;99.90
42099;DHT22;27758;55.900;8.516;2023-08-06T06:04:26;15.40;99.90
42099;DHT22;27758;55.900;8.516;2023-08-06T06:06:52;15.40;99.90
42099;DHT22;27758;55.900;8.516;2023-08-06T06:09:17;15.40;99.90
42099;DHT22;27758;55.900;8.516;2023-08-06T06:11:43;15.40;99.90
42099;DHT22;27758;55.900;8.516;2023-08-06T06:14:09;15.40;99.90
42099;DHT22;27758;55.900;8.516;2023-08-06T06:16:34;15.40;99.90
42099;DHT22;27758;55.900;8.516;2023-08-06T06:19:00;15.40;99.90
42099;DHT22;27758;55.900;8.516;2023-08-06T06:21:26;15.50;99.90
42099;DHT22;27758;55.900;8.516;2023-08-06T06:23:51;15.60;99.90
42099;DHT22;27758;55.900;8.516;2023-08-06T06:26:18;15.60;99.90
42099;DHT22;27758;55.900;8.516;2023-08-06T06:28:44;15.70;99.90
42099;DHT22;27758;55.900;8.516;2023-08-06T06:31:09;15.70;99.90
42099;DHT22;27758;55.900;8.516;2023-08-06T06:33:36;15.80;99.90
42099;DHT22;27758;55.900;8.516;2023-08-06T06:36:02;15.90;99.90
42099;DHT22;27758;55.900;8.516;2023-08-06T06:38:29;15.90;99.90
42099;DHT22;27758;55.900;8.516;2023-08-06T06:40:56;16.00;99.90
42099;DHT22;27758;55.900;8.516;2023-08-06T06:43:23;16.10;99.90
42099;DHT22;27758;55.900;8.516;2023-08-06T06:45:53;16.20;99.90
42099;DHT22;27758;55.900;8.516;2023-08-06T06:48:19;16.30;99.90
42099;DHT22;27758;55.900;8.516;2023-08-06T06:50:48;16.30;99.90
42099;DHT22;27758;55.900;8.516;2023-08-06T06:53:14;16.50;99.90
42099;DHT22;27758;55.900;8.516;2023-08-06T06:55:40;16.60;99.90
42099;DHT22;27758;55.900;8.516;2023-08-06T06:58:06;16.60;99.90
42099;DHT22;27758;55.900;8.516;2023-08-06T07:00:31;16.70;99.90
42099;DHT22;27758;55.900;8.516;2023-08-06T07:02:57;16.80;99.90
42099;DHT22;27758;55.900;8.516;2023-08-06T07:05:23;16.90;99.90
42099;DHT22;27758;55.900;8.516;2023-08-06T07:07:48;16.90;99.90
42099;DHT22;27758;55.900;8.516;2023-08-06T07:10:14;16.90;99.90
42099;DHT22;27758;55.900;8.516;2023-08-06T07:12:40;17.00;99.90
42099;DHT22;27758;55.900;8.516;2023-08-06T07:15:09;17.10;99.90
42099;DHT22;27758;55.900;8.516;2023-08-06T07:17:35;17.20;99.90
42099;DHT22;27758;55.900;8.516;2023-08-06T07:20:00;17.30;99.90
42099;DHT22;27758;55.900;8.516;2023-08-06T07:22:26;17.40;99.90
42099;DHT22;27758;55.900;8.516;2023-08-06T07:24:52;17.50;99.90
42099;DHT22;27758;55.900;8.516;2023-08-06T07:27:17;17.50;99.90
42099;DHT22;27758;55.900;8.516;2023-08-06T07:29:43;17.60;99.90
42099;DHT22;27758;55.900;8.516;2023-08-06T07:32:09;17.80;99.90
42099;DHT22;27758;55.900;8.516;2023-08-06T07:34:35;17.90;99.90
42099;DHT22;27758;55.900;8.516;2023-08-06T07:37:00;18.10;99.90
42099;DHT22;27758;55.900;8.516;2023-08-06T07:39:29;18.20;99.90
42099;DHT22;27758;55.900;8.516;2023-08-06T07:41:55;18.30;99.90
42099;DHT22;27758;55.900;8.516;2023-08-06T07:44:22;18.30;99.90
42099;DHT22;27758;55.900;8.516;2023-08-06T07:46:47;18.30;99.90
42099;DHT22;27758;55.900;8.516;2023-08-06T07:49:13;18.40;99.90
42099;DHT22;27758;55.900;8.516;2023-08-06T07:51:39;18.50;99.90
42099;DHT22;27758;55.900;8.516;2023-08-06T07:54:05;18.50;99.90
42099;DHT22;27758;55.900;8.516;2023-08-06T07:56:31;18.60;99.90
42099;DHT22;27758;55.900;8.516;2023-08-06T07:58:57;18.80;99.90
42099;DHT22;27758;55.900;8.516;2023-08-06T08:01:23;18.80;99.90
42099;DHT22;27758;55.900;8.516;2023-08-06T08:03:50;18.90;99.90
42099;DHT22;27758;55.900;8.516;2023-08-06T08:06:15;19.00;99.90
42099;DHT22;27758;55.900;8.516;2023-08-06T08:08:41;18.90;99.90
42099;DHT22;27758;55.900;8.516;2023-08-06T08:11:07;19.00;99.90
42099;DHT22;27758;55.900;8.516;2023-08-06T08:13:33;19.30;99.90
42099;DHT22;27758;55.900;8.516;2023-08-06T08:16:00;19.30;99.90
42099;DHT22;27758;55.900;8.516;2023-08-06T08:18:26;19.30;99.90
42099;DHT22;27758;55.900;8.516;2023-08-06T08:20:52;19.30;99.90
42099;DHT22;27758;55.900;8.516;2023-08-06T08:23:17;19.40;99.90
42099;DHT22;27758;55.900;8.516;2023-08-06T08:25:43;19.50;99.90
42099;DHT22;27758;55.900;8.516;2023-08-06T08:28:09;19.50;99.90
42099;DHT22;27758;55.900;8.516;2023-08-06T08:30:34;19.60;99.90
42099;DHT22;27758;55.900;8.516;2023-08-06T08:33:00;19.70;99.90
42099;DHT22;27758;55.900;8.516;2023-08-06T08:35:26;19.60;99.90
42099;DHT22;27758;55.900;8.516;2023-08-06T08:37:51;19.70;99.90
42099;DHT22;27758;55.900;8.516;2023-08-06T08:40:18;19.70;99.90
42099;DHT22;27758;55.900;8.516;2023-08-06T08:42:44;19.90;99.90
42099;DHT22;27758;55.900;8.516;2023-08-06T08:45:14;19.80;99.90
42099;DHT22;27758;55.900;8.516;2023-08-06T08:47:40;19.70;99.90
42099;DHT22;27758;55.900;8.516;2023-08-06T08:50:08;19.80;99.90
42099;DHT22;27758;55.900;8.516;2023-08-06T08:52:36;19.90;99.90
42099;DHT22;27758;55.900;8.516;2023-08-06T08:55:02;19.90;99.90
42099;DHT22;27758;55.900;8.516;2023-08-06T08:57:28;19.90;99.90
42099;DHT22;27758;55.900;8.516;2023-08-06T08:59:53;19.90;99.90
42099;DHT22;27758;55.900;8.516;2023-08-06T09:02:21;19.90;99.90
42099;DHT22;27758;55.900;8.516;2023-08-06T09:04:48;19.90;99.90
42099;DHT22;27758;55.900;8.516;2023-08-06T09:07:18;20.00;99.90
42099;DHT22;27758;55.900;8.516;2023-08-06T09:09:46;20.10;99.90
42099;DHT22;27758;55.900;8.516;2023-08-06T09:12:17;20.20;99.90
42099;DHT22;27758;55.900;8.516;2023-08-06T09:14:43;20.40;99.90
42099;DHT22;27758;55.900;8.516;2023-08-06T09:17:09;20.40;99.90
42099;DHT22;27758;55.900;8.516;2023-08-06T09:19:41;20.50;99.90
42099;DHT22;27758;55.900;8.516;2023-08-06T09:22:12;20.40;99.90
42099;DHT22;27758;55.900;8.516;2023-08-06T09:24:40;20.50;99.90
42099;DHT22;27758;55.900;8.516;2023-08-06T09:27:11;20.50;99.90
42099;DHT22;27758;55.900;8.516;2023-08-06T09:29:40;20.70;99.90
42099;DHT22;27758;55.900;8.516;2023-08-06T09:32:06;20.50;99.90
42099;DHT22;27758;55.900;8.516;2023-08-06T09:34:32;20.50;99.90
42099;DHT22;27758;55.900;8.516;2023-08-06T09:36:57;20.40;99.90
42099;DHT22;27758;55.900;8.516;2023-08-06T09:39:30;20.40;99.90
42099;DHT22;27758;55.900;8.516;2023-08-06T09:42:00;20.40;99.90
42099;DHT22;27758;55.900;8.516;2023-08-06T09:44:28;20.20;99.90
42099;DHT22;27758;55.900;8.516;2023-08-06T09:47:02;20.40;99.90
42099;DHT22;27758;55.900;8.516;2023-08-06T09:51:59;20.70;99.90
42099;DHT22;27758;55.900;8.516;2023-08-06T09:54:26;20.90;99.90
42099;DHT22;27758;55.900;8.516;2023-08-06T09:56:56;20.80;99.90
42099;DHT22;27758;55.900;8.516;2023-08-06T09:59:25;20.90;99.90
42099;DHT22;27758;55.900;8.516;2023-08-06T10:01:51;21.00;99.90
42099;DHT22;27758;55.900;8.516;2023-08-06T10:04:20;21.00;99.90
42099;DHT22;27758;55.900;8.516;2023-08-06T10:06:48;21.20;99.90
42099;DHT22;27758;55.900;8.516;2023-08-06T10:09:14;21.40;99.90
42099;DHT22;27758;55.900;8.516;2023-08-06T10:11:40;21.40;99.90
42099;DHT22;27758;55.900;8.516;2023-08-06T10:14:11;21.30;99.90
42099;DHT22;27758;55.900;8.516;2023-08-06T10:16:39;21.30;99.90
42099;DHT22;27758;55.900;8.516;2023-08-06T10:19:07;21.40;99.90
42099;DHT22;27758;55.900;8.516;2023-08-06T10:21:33;21.30;99.90
42099;DHT22;27758;55.900;8.516;2023-08-06T10:23:59;21.30;99.90
42099;DHT22;27758;55.900;8.516;2023-08-06T10:26:30;21.10;99.90
42099;DHT22;27758;55.900;8.516;2023-08-06T10:28:56;21.10;99.90
42099;DHT22;27758;55.900;8.516;2023-08-06T10:31:53;21.10;99.90
42099;DHT22;27758;55.900;8.516;2023-08-06T10:34:19;21.20;99.90
42099;DHT22;27758;55.900;8.516;2023-08-06T10:36:44;21.30;99.90
42099;DHT22;27758;55.900;8.516;2023-08-06T10:39:13;21.10;99.90
42099;DHT22;27758;55.900;8.516;2023-08-06T10:41:42;21.00;99.90
42099;DHT22;27758;55.900;8.516;2023-08-06T10:44:09;20.90;99.90
42099;DHT22;27758;55.900;8.516;2023-08-06T10:46:36;20.80;99.90
42099;DHT22;27758;55.900;8.516;2023-08-06T10:49:03;20.90;99.90
42099;DHT22;27758;55.900;8.516;2023-08-06T10:51:29;20.90;99.90
42099;DHT22;27758;55.900;8.516;2023-08-06T10:53:54;20.90;99.90
42099;DHT22;27758;55.900;8.516;2023-08-06T10:56:23;21.00;99.90
42099;DHT22;27758;55.900;8.516;2023-08-06T10:58:50;21.00;99.90
42099;DHT22;27758;55.900;8.516;2023-08-06T11:01:16;21.10;99.90
42099;DHT22;27758;55.900;8.516;2023-08-06T11:03:44;20.90;99.90
42099;DHT22;27758;55.900;8.516;2023-08-06T11:06:10;21.00;99.90
42099;DHT22;27758;55.900;8.516;2023-08-06T11:08:38;21.10;99.90
42099;DHT22;27758;55.900;8.516;2023-08-06T11:11:12;21.10;99.90
42099;DHT22;27758;55.900;8.516;2023-08-06T11:13:56;21.20;99.90
42099;DHT22;27758;55.900;8.516;2023-08-06T11:16:23;21.30;99.90
42099;DHT22;27758;55.900;8.516;2023-08-06T11:18:51;21.30;99.90
42099;DHT22;27758;55.900;8.516;2023-08-06T11:21:20;21.40;99.90
42099;DHT22;27758;55.900;8.516;2023-08-06T11:23:46;21.20;99.90
42099;DHT22;27758;55.900;8.516;2023-08-06T11:26:12;21.30;99.90
42099;DHT22;27758;55.900;8.516;2023-08-06T11:28:37;21.20;99.90
42099;DHT22;27758;55.900;8.516;2023-08-06T11:31:03;21.30;99.90
42099;DHT22;27758;55.900;8.516;2023-08-06T11:33:29;21.30;99.90
42099;DHT22;27758;55.900;8.516;2023-08-06T11:35:58;21.30;99.90
42099;DHT22;27758;55.900;8.516;2023-08-06T11:38:25;21.40;99.90
42099;DHT22;27758;55.900;8.516;2023-08-06T11:40:52;21.30;99.90
42099;DHT22;27758;55.900;8.516;2023-08-06T11:43:19;21.40;99.90
42099;DHT22;27758;55.900;8.516;2023-08-06T11:45:48;21.40;99.90
42099;DHT22;27758;55.900;8.516;2023-08-06T11:48:13;21.50;99.90
42099;DHT22;27758;55.900;8.516;2023-08-06T11:50:39;21.60;99.90
42099;DHT22;27758;55.900;8.516;2023-08-06T11:53:05;21.60;99.90
42099;DHT22;27758;55.900;8.516;2023-08-06T11:55:31;21.70;99.90
42099;DHT22;27758;55.900;8.516;2023-08-06T11:57:57;21.60;99.90
42099;DHT22;27758;55.900;8.516;2023-08-06T12:00:24;21.50;99.90
42099;DHT22;27758;55.900;8.516;2023-08-06T12:02:50;21.50;99.90
42099;DHT22;27758;55.900;8.516;2023-08-06T12:05:21;21.50;99.90
42099;DHT22;27758;55.900;8.516;2023-08-06T12:07:50;21.60;99.90
42099;DHT22;27758;55.900;8.516;2023-08-06T12:10:17;21.60;99.90
42099;DHT22;27758;55.900;8.516;2023-08-06T12:12:43;21.50;99.90
42099;DHT22;27758;55.900;8.516;2023-08-06T12:15:09;21.50;99.90
42099;DHT22;27758;55.900;8.516;2023-08-06T12:17:36;21.40;99.90
42099;DHT22;27758;55.900;8.516;2023-08-06T12:20:05;21.40;99.90
42099;DHT22;27758;55.900;8.516;2023-08-06T12:22:32;21.40;99.90
42099;DHT22;27758;55.900;8.516;2023-08-06T12:25:01;21.50;99.90
42099;DHT22;27758;55.900;8.516;2023-08-06T12:27:27;21.60;99.90
42099;DHT22;27758;55.900;8.516;2023-08-06T12:29:54;21.70;99.90
42099;DHT22;27758;55.900;8.516;2023-08-06T12:32:21;21.60;99.90
42099;DHT22;27758;55.900;8.516;2023-08-06T12:34:47;21.60;99.90
42099;DHT22;27758;55.900;8.516;2023-08-06T12:37:13;21.50;99.90
42099;DHT22;27758;55.900;8.516;2023-08-06T12:39:38;21.50;99.90
42099;DHT22;27758;55.900;8.516;2023-08-06T12:42:05;21.40;99.90
42099;DHT22;27758;55.900;8.516;2023-08-06T12:44:32;21.40;99.90
42099;DHT22;27758;55.900;8.516;2023-08-06T12:46:58;21.40;99.90
42099;DHT22;27758;55.900;8.516;2023-08-06T12:49:25;21.50;99.90
42099;DHT22;27758;55.900;8.516;2023-08-06T12:51:52;21.60;99.90
42099;DHT22;27758;55.900;8.516;2023-08-06T12:54:20;21.60;99.90
42099;DHT22;27758;55.900;8.516;2023-08-06T12:56:46;21.60;99.90
42099;DHT22;27758;55.900;8.516;2023-08-06T12:59:16;21.50;99.90
42099;DHT22;27758;55.900;8.516;2023-08-06T13:01:42;21.50;99.90
42099;DHT22;27758;55.900;8.516;2023-08-06T13:04:08;21.40;99.90
42099;DHT22;27758;55.900;8.516;2023-08-06T13:06:34;21.30;99.90
42099;DHT22;27758;55.900;8.516;2023-08-06T13:09:20;21.00;99.90
42099;DHT22;27758;55.900;8.516;2023-08-06T13:11:46;20.30;99.90
42099;DHT22;27758;55.900;8.516;2023-08-06T13:14:15;20.00;99.90
42099;DHT22;27758;55.900;8.516;2023-08-06T13:16:42;20.00;99.90
42099;DHT22;27758;55.900;8.516;2023-08-06T13:19:09;19.90;99.90
42099;DHT22;27758;55.900;8.516;2023-08-06T13:24:06;20.10;99.90
42099;DHT22;27758;55.900;8.516;2023-08-06T13:26:32;20.10;99.90
42099;DHT22;27758;55.900;8.516;2023-08-06T13:28:58;20.20;99.90
42099;DHT22;27758;55.900;8.516;2023-08-06T13:31:24;20.30;99.90
42099;DHT22;27758;55.900;8.516;2023-08-06T13:33:50;20.50;99.90
42099;DHT22;27758;55.900;8.516;2023-08-06T13:36:16;20.50;99.90
42099;DHT22;27758;55.900;8.516;2023-08-06T13:38:42;20.60;99.90
42099;DHT22;27758;55.900;8.516;2023-08-06T13:41:08;20.70;99.90
42099;DHT22;27758;55.900;8.516;2023-08-06T13:43:33;20.80;99.90
42099;DHT22;27758;55.900;8.516;2023-08-06T13:45:59;20.80;99.90
42099;DHT22;27758;55.900;8.516;2023-08-06T13:48:25;20.80;99.90
42099;DHT22;27758;55.900;8.516;2023-08-06T13:50:51;20.80;99.90
42099;DHT22;27758;55.900;8.516;2023-08-06T13:53:17;20.90;99.90
42099;DHT22;27758;55.900;8.516;2023-08-06T13:55:42;21.00;99.90
42099;DHT22;27758;55.900;8.516;2023-08-06T13:58:08;21.00;99.90
42099;DHT22;27758;55.900;8.516;2023-08-06T14:00:35;21.00;99.90
42099;DHT22;27758;55.900;8.516;2023-08-06T14:03:01;20.90;99.90
42099;DHT22;27758;55.900;8.516;2023-08-06T14:05:28;20.90;99.90
42099;DHT22;27758;55.900;8.516;2023-08-06T14:07:54;21.00;99.90
42099;DHT22;27758;55.900;8.516;2023-08-06T14:10:19;21.10;99.90
42099;DHT22;27758;55.900;8.516;2023-08-06T14:12:45;21.10;99.90
42099;DHT22;27758;55.900;8.516;2023-08-06T14:15:11;21.10;99.90
42099;DHT22;27758;55.900;8.516;2023-08-06T14:17:37;21.20;99.90
42099;DHT22;27758;55.900;8.516;2023-08-06T14:20:03;21.30;99.90
42099;DHT22;27758;55.900;8.516;2023-08-06T14:22:30;21.40;99.90
42099;DHT22;27758;55.900;8.516;2023-08-06T14:24:58;21.30;99.90
42099;DHT22;27758;55.900;8.516;2023-08-06T14:27:24;21.40;99.90
42099;DHT22;27758;55.900;8.516;2023-08-06T14:29:50;21.20;99.90
42099;DHT22;27758;55.900;8.516;2023-08-06T14:32:17;21.00;99.90
42099;DHT22;27758;55.900;8.516;2023-08-06T14:34:45;20.90;99.90
42099;DHT22;27758;55.900;8.516;2023-08-06T14:37:11;20.80;99.90
42099;DHT22;27758;55.900;8.516;2023-08-06T14:39:36;20.70;99.90
42099;DHT22;27758;55.900;8.516;2023-08-06T14:42:04;20.70;99.90
42099;DHT22;27758;55.900;8.516;2023-08-06T14:44:30;20.60;99.90
42099;DHT22;27758;55.900;8.516;2023-08-06T14:46:55;20.70;99.90
42099;DHT22;27758;55.900;8.516;2023-08-06T14:49:21;20.60;99.90
42099;DHT22;27758;55.900;8.516;2023-08-06T14:51:47;20.60;99.90
42099;DHT22;27758;55.900;8.516;2023-08-06T14:54:13;20.70;99.90
42099;DHT22;27758;55.900;8.516;2023-08-06T14:56:38;20.60;99.90
42099;DHT22;27758;55.900;8.516;2023-08-06T14:59:04;20.70;99.90
42099;DHT22;27758;55.900;8.516;2023-08-06T15:01:30;20.70;99.90
42099;DHT22;27758;55.900;8.516;2023-08-06T15:03:55;20.70;99.90
42099;DHT22;27758;55.900;8.516;2023-08-06T15:06:21;20.80;99.90
42099;DHT22;27758;55.900;8.516;2023-08-06T15:08:47;20.80;99.90
42099;DHT22;27758;55.900;8.516;2023-08-06T15:11:14;20.90;99.90
42099;DHT22;27758;55.900;8.516;2023-08-06T15:13:40;20.90;99.90
42099;DHT22;27758;55.900;8.516;2023-08-06T15:16:06;21.00;99.90
42099;DHT22;27758;55.900;8.516;2023-08-06T15:18:32;21.10;99.90
42099;DHT22;27758;55.900;8.516;2023-08-06T15:20:57;21.10;99.90
42099;DHT22;27758;55.900;8.516;2023-08-06T15:23:24;21.20;99.90
42099;DHT22;27758;55.900;8.516;2023-08-06T15:25:52;21.20;99.90
42099;DHT22;27758;55.900;8.516;2023-08-06T15:28:18;21.20;99.90
42099;DHT22;27758;55.900;8.516;2023-08-06T15:30:54;21.20;99.90
42099;DHT22;27758;55.900;8.516;2023-08-06T15:33:21;21.30;99.90
42099;DHT22;27758;55.900;8.516;2023-08-06T15:35:47;21.40;99.90